createdAt,value
2019-04-27T00:01:45.325Z,99.90
2019-04-27T00:04:19.284Z,99.90
2019-04-27T00:06:48.235Z,99.90
2019-04-27T00:09:18.120Z,99.90
2019-04-27T00:12:03.534Z,99.90
2019-04-27T00:14:33.038Z,99.90
2019-04-27T00:17:21.089Z,99.90
2019-04-27T00:19:50.584Z,99.90
2019-04-27T00:22:26.355Z,99.90
2019-04-27T00:24:54.639Z,99.90
2019-04-27T00:27:23.447Z,99.90
2019-04-27T00:29:53.435Z,99.90
2019-04-27T00:32:23.132Z,99.90
2019-04-27T00:34:53.160Z,99.90
2019-04-27T00:37:39.189Z,99.90
2019-04-27T00:40:09.089Z,99.90
2019-04-27T00:42:37.385Z,99.90
2019-04-27T00:45:06.145Z,99.90
2019-04-27T00:47:35.017Z,99.90
2019-04-27T00:50:05.207Z,99.90
2019-04-27T00:52:34.853Z,99.90
2019-04-27T00:55:04.224Z,99.90
2019-04-27T00:57:48.970Z,99.90
2019-04-27T01:00:31.035Z,99.90
2019-04-27T01:03:06.663Z,99.90
2019-04-27T01:05:34.929Z,99.90
2019-04-27T01:08:03.834Z,99.90
2019-04-27T01:10:33.497Z,99.90
2019-04-27T01:13:03.320Z,99.90
2019-04-27T01:15:33.820Z,99.90
2019-04-27T01:18:12.274Z,99.90
2019-04-27T01:20:32.488Z,99.90
2019-04-27T01:23:00.742Z,99.90
2019-04-27T01:25:30.666Z,99.90
2019-04-27T01:28:09.786Z,99.90
2019-04-27T01:30:45.793Z,99.90
2019-04-27T01:33:14.154Z,99.90
2019-04-27T01:35:42.594Z,99.90
2019-04-27T01:38:10.889Z,99.90
2019-04-27T01:40:39.269Z,99.90
2019-04-27T01:43:09.142Z,99.90
2019-04-27T01:45:39.160Z,99.90
2019-04-27T01:48:20.823Z,99.90
2019-04-27T01:50:39.148Z,99.90
2019-04-27T01:53:09.058Z,99.90
2019-04-27T01:55:40.435Z,99.90
2019-04-27T01:58:10.687Z,99.90
2019-04-27T02:00:40.789Z,99.90
2019-04-27T02:03:10.677Z,99.90
2019-04-27T02:05:40.604Z,99.90
2019-04-27T02:08:09.508Z,99.90
2019-04-27T02:10:39.573Z,99.90
2019-04-27T02:13:08.919Z,99.90
2019-04-27T02:15:37.370Z,99.90
2019-04-27T02:18:05.802Z,99.90
2019-04-27T02:20:34.085Z,99.90
2019-04-27T02:23:02.367Z,99.90
2019-04-27T02:25:30.654Z,99.90
2019-04-27T02:28:00.543Z,99.90
2019-04-27T02:30:36.207Z,99.90
2019-04-27T02:33:12.746Z,99.90
2019-04-27T02:35:42.048Z,99.90
2019-04-27T02:38:10.516Z,99.90
2019-04-27T02:40:50.142Z,99.90
2019-04-27T02:43:20.765Z,99.90
2019-04-27T02:45:50.343Z,99.90
2019-04-27T02:48:19.861Z,99.90
2019-04-27T02:50:50.180Z,99.90
2019-04-27T02:53:20.168Z,99.90
2019-04-27T02:55:49.995Z,99.90
2019-04-27T02:58:21.498Z,99.90
2019-04-27T03:00:50.111Z,99.90
2019-04-27T03:03:20.348Z,99.90
2019-04-27T03:05:50.401Z,99.90
2019-04-27T03:08:20.051Z,99.90
2019-04-27T03:10:50.357Z,99.90
2019-04-27T03:13:35.880Z,99.90
2019-04-27T03:16:22.084Z,99.90
2019-04-27T03:19:14.899Z,99.90
2019-04-27T03:21:42.680Z,99.90
2019-04-27T03:24:10.964Z,99.90
2019-04-27T03:26:41.833Z,99.90
2019-04-27T03:29:10.210Z,99.90
2019-04-27T03:31:42.646Z,99.90
2019-04-27T03:34:11.976Z,99.90
2019-04-27T03:36:39.520Z,99.90
2019-04-27T03:39:10.146Z,99.90
2019-04-27T03:41:40.981Z,99.90
2019-04-27T03:44:09.394Z,99.90
2019-04-27T03:46:39.713Z,99.90
2019-04-27T03:49:09.801Z,99.90
2019-04-27T03:51:42.169Z,99.90
2019-04-27T03:54:12.080Z,99.90
2019-04-27T03:56:44.956Z,99.90
2019-04-27T03:59:14.880Z,99.90
2019-04-27T04:01:43.137Z,99.90
2019-04-27T04:04:11.449Z,99.90
2019-04-27T04:06:40.095Z,99.90
2019-04-27T04:09:10.180Z,99.90
2019-04-27T04:11:46.089Z,99.90
2019-04-27T04:14:16.021Z,99.90
2019-04-27T04:16:45.915Z,99.90
2019-04-27T04:19:14.365Z,99.90
2019-04-27T04:21:42.676Z,99.90
2019-04-27T04:24:12.124Z,99.90
2019-04-27T04:26:40.791Z,99.90
2019-04-27T04:29:10.361Z,99.90
2019-04-27T04:31:40.367Z,99.90
2019-04-27T04:34:11.548Z,99.90
2019-04-27T04:36:39.800Z,99.90
2019-04-27T04:39:11.943Z,99.90
2019-04-27T04:41:43.520Z,99.90
2019-04-27T04:44:12.463Z,99.90
2019-04-27T04:46:50.147Z,99.90
2019-04-27T04:49:19.460Z,99.90
2019-04-27T04:51:50.168Z,99.90
2019-04-27T04:54:19.803Z,99.90
2019-04-27T04:56:49.413Z,99.90
2019-04-27T04:59:19.939Z,99.90
2019-04-27T05:01:49.731Z,99.90
2019-04-27T05:04:19.343Z,99.90
2019-04-27T05:06:50.495Z,99.90
2019-04-27T05:09:19.337Z,99.90
2019-04-27T05:11:48.714Z,99.90
2019-04-27T05:14:17.053Z,99.90
2019-04-27T05:16:45.332Z,99.90
2019-04-27T05:19:13.588Z,99.90
2019-04-27T05:21:41.868Z,99.90
2019-04-27T05:24:10.118Z,99.90
2019-04-27T05:26:39.723Z,99.90
2019-04-27T05:29:09.136Z,99.90
2019-04-27T05:31:38.797Z,99.90
2019-04-27T05:34:07.292Z,99.90
2019-04-27T05:36:35.570Z,99.90
2019-04-27T05:39:05.486Z,99.90
2019-04-27T05:41:37.642Z,99.90
2019-04-27T05:44:07.695Z,99.90
2019-04-27T05:46:37.005Z,99.90
2019-04-27T05:49:07.807Z,99.90
2019-04-27T05:51:38.159Z,99.90
2019-04-27T05:54:06.904Z,99.90
2019-04-27T05:56:35.254Z,99.90
2019-04-27T05:59:03.500Z,99.90
2019-04-27T06:01:31.786Z,99.90
2019-04-27T06:04:00.104Z,99.90
2019-04-27T06:06:29.537Z,99.90
2019-04-27T06:08:59.420Z,99.90
2019-04-27T06:11:28.625Z,99.90
2019-04-27T06:13:57.032Z,99.90
2019-04-27T06:16:25.367Z,99.90
2019-04-27T06:18:53.635Z,99.90
2019-04-27T06:21:21.889Z,99.90
2019-04-27T06:23:50.153Z,99.90
2019-04-27T06:26:20.207Z,99.90
2019-04-27T06:28:50.394Z,99.90
2019-04-27T06:31:19.627Z,99.90
2019-04-27T06:33:49.606Z,99.90
2019-04-27T06:36:19.929Z,99.90
2019-04-27T06:38:48.582Z,99.90
2019-04-27T06:41:18.846Z,99.90
2019-04-27T06:43:46.907Z,99.90
2019-04-27T06:46:15.158Z,99.90
2019-04-27T06:48:43.438Z,99.90
2019-04-27T06:51:11.701Z,99.90
2019-04-27T06:53:39.997Z,99.90
2019-04-27T06:56:09.014Z,99.90
2019-04-27T06:58:40.541Z,99.90
2019-04-27T07:01:09.473Z,99.90
2019-04-27T07:03:39.395Z,99.90
2019-04-27T07:06:08.882Z,99.90
2019-04-27T07:08:37.299Z,99.90
2019-04-27T07:11:05.677Z,99.90
2019-04-27T07:13:34.026Z,99.90
2019-04-27T07:16:02.407Z,99.90
2019-04-27T07:18:30.751Z,99.90
2019-04-27T07:20:59.117Z,99.90
2019-04-27T07:23:29.264Z,99.90
2019-04-27T07:25:59.665Z,99.90
2019-04-27T07:28:28.649Z,99.90
2019-04-27T07:30:58.525Z,99.90
2019-04-27T07:33:27.003Z,99.90
2019-04-27T07:35:55.398Z,99.90
2019-04-27T07:38:23.673Z,99.90
2019-04-27T07:40:52.038Z,99.90
2019-04-27T07:43:22.048Z,99.90
2019-04-27T07:45:50.406Z,99.90
2019-04-27T07:48:18.907Z,99.90
2019-04-27T07:50:48.659Z,99.90
2019-04-27T07:53:16.988Z,99.90
2019-04-27T07:55:45.263Z,99.90
2019-04-27T07:58:13.523Z,99.90
2019-04-27T08:00:41.801Z,99.90
2019-04-27T08:03:10.138Z,99.90
2019-04-27T08:05:39.132Z,99.90
2019-04-27T08:08:08.939Z,99.90
2019-04-27T08:10:39.083Z,99.90
2019-04-27T08:13:07.503Z,99.90
2019-04-27T08:15:35.778Z,99.90
2019-04-27T08:18:04.043Z,99.90
2019-04-27T08:20:32.311Z,99.90
2019-04-27T08:23:01.354Z,99.90
2019-04-27T08:25:30.825Z,99.90
2019-04-27T08:28:08.500Z,99.90
2019-04-27T08:30:39.396Z,99.90
2019-04-27T08:33:11.458Z,99.90
2019-04-27T08:35:40.730Z,99.90
2019-04-27T08:38:09.171Z,99.90
2019-04-27T08:40:39.228Z,99.90
2019-04-27T08:43:09.056Z,99.90
2019-04-27T08:45:39.160Z,99.90
2019-04-27T08:48:09.113Z,99.90
2019-04-27T08:50:39.701Z,99.90
2019-04-27T08:53:09.679Z,99.90
2019-04-27T08:55:39.435Z,99.90
2019-04-27T08:58:09.841Z,99.90
2019-04-27T09:00:39.080Z,99.90
2019-04-27T09:03:09.332Z,99.90
2019-04-27T09:05:39.009Z,99.90
2019-04-27T09:08:18.987Z,99.90
2019-04-27T09:10:51.903Z,99.90
2019-04-27T09:13:33.847Z,99.90
2019-04-27T09:16:11.102Z,99.90
2019-04-27T09:18:41.031Z,99.90
2019-04-27T09:21:10.629Z,99.90
2019-04-27T09:23:39.044Z,99.90
2019-04-27T09:26:07.342Z,99.90
2019-04-27T09:28:35.612Z,99.90
2019-04-27T09:31:03.958Z,99.90
2019-04-27T09:33:32.254Z,99.90
2019-04-27T09:36:00.522Z,99.90
2019-04-27T09:38:29.810Z,99.90
2019-04-27T09:40:58.250Z,99.90
2019-04-27T09:43:26.607Z,99.90
2019-04-27T09:45:55.743Z,99.90
2019-04-27T09:48:25.939Z,99.90
2019-04-27T09:50:56.022Z,99.90
2019-04-27T09:53:24.479Z,99.90
2019-04-27T09:55:52.898Z,99.90
2019-04-27T09:58:21.220Z,99.90
2019-04-27T10:00:49.490Z,99.90
2019-04-27T10:03:17.843Z,99.90
2019-04-27T10:05:46.193Z,99.90
2019-04-27T10:08:14.483Z,99.90
2019-04-27T10:10:42.737Z,99.90
2019-04-27T10:13:11.044Z,99.90
2019-04-27T10:15:39.303Z,99.90
2019-04-27T10:18:07.638Z,99.90
2019-04-27T10:20:38.964Z,99.90
2019-04-27T10:23:06.347Z,99.90
2019-04-27T10:25:35.539Z,99.90
2019-04-27T10:28:06.556Z,99.90
2019-04-27T10:30:35.837Z,99.90
2019-04-27T10:33:07.741Z,99.90
2019-04-27T10:35:36.188Z,99.90
2019-04-27T10:38:04.350Z,99.90
2019-04-27T10:40:32.727Z,99.90
2019-04-27T10:43:01.051Z,99.90
2019-04-27T10:45:29.357Z,99.90
2019-04-27T10:47:57.677Z,99.90
2019-04-27T10:50:26.533Z,99.90
2019-04-27T10:52:58.770Z,99.90
2019-04-27T10:55:26.156Z,99.90
2019-04-27T10:57:54.591Z,99.90
2019-04-27T11:00:25.651Z,99.90
2019-04-27T11:02:54.050Z,99.90
2019-04-27T11:05:25.690Z,99.90
2019-04-27T11:07:56.449Z,99.90
2019-04-27T11:10:25.992Z,99.90
2019-04-27T11:12:55.985Z,99.90
2019-04-27T11:15:26.335Z,99.90
2019-04-27T11:17:56.149Z,99.90
2019-04-27T11:20:27.575Z,99.90
2019-04-27T11:23:06.613Z,99.90
2019-04-27T11:25:26.320Z,99.90
2019-04-27T11:27:57.543Z,99.90
2019-04-27T11:30:24.896Z,99.90
2019-04-27T11:32:56.738Z,99.90
2019-04-27T11:35:25.733Z,99.90
2019-04-27T11:37:55.774Z,99.90
2019-04-27T11:40:24.102Z,99.90
2019-04-27T11:42:52.433Z,99.90
2019-04-27T11:45:20.714Z,99.90
2019-04-27T11:47:48.996Z,99.90
2019-04-27T11:50:17.305Z,99.90
2019-04-27T11:52:45.830Z,99.90
2019-04-27T11:55:15.927Z,99.90
2019-04-27T11:57:44.176Z,99.90
2019-04-27T12:00:14.289Z,99.90
2019-04-27T12:02:42.662Z,99.90
2019-04-27T12:05:11.259Z,99.90
2019-04-27T12:07:39.540Z,99.90
2019-04-27T12:10:07.822Z,99.90
2019-04-27T12:12:36.413Z,99.90
2019-04-27T12:15:06.855Z,99.90
2019-04-27T12:17:35.756Z,99.90
2019-04-27T12:20:07.549Z,99.90
2019-04-27T12:22:35.887Z,99.90
2019-04-27T12:25:06.487Z,99.90
2019-04-27T12:27:36.657Z,99.90
2019-04-27T12:30:09.486Z,99.90
2019-04-27T12:32:37.916Z,99.90
2019-04-27T12:35:06.780Z,99.90
2019-04-27T12:37:35.605Z,99.90
2019-04-27T12:40:06.022Z,99.90
2019-04-27T12:42:36.232Z,99.90
2019-04-27T12:45:06.407Z,99.90
2019-04-27T12:47:36.350Z,99.90
2019-04-27T12:50:10.269Z,99.90
2019-04-27T12:52:39.036Z,99.90
2019-04-27T12:55:11.894Z,99.90
2019-04-27T12:57:44.772Z,99.90
2019-04-27T13:00:16.406Z,99.90
2019-04-27T13:02:44.901Z,99.90
2019-04-27T13:05:13.163Z,99.90
2019-04-27T13:07:41.419Z,99.90
2019-04-27T13:10:09.779Z,99.90
2019-04-27T13:12:38.116Z,99.90
2019-04-27T13:15:07.765Z,99.90
2019-04-27T13:17:36.638Z,99.90
2019-04-27T13:20:07.176Z,99.90
2019-04-27T13:22:37.121Z,99.90
2019-04-27T13:25:07.547Z,99.90
2019-04-27T13:27:36.729Z,99.90
2019-04-27T13:30:07.427Z,99.90
2019-04-27T13:32:36.443Z,99.90
2019-04-27T13:35:06.250Z,99.90
2019-04-27T13:37:36.622Z,99.90
2019-04-27T13:40:09.455Z,99.90
2019-04-27T13:42:37.213Z,99.90
2019-04-27T13:45:07.820Z,99.90
2019-04-27T13:47:46.816Z,99.90
2019-04-27T13:50:16.808Z,99.90
2019-04-27T13:52:46.623Z,99.90
2019-04-27T13:55:15.944Z,99.90
2019-04-27T13:57:50.367Z,99.90
2019-04-27T14:00:15.066Z,99.90
2019-04-27T14:02:44.138Z,99.90
2019-04-27T14:05:12.488Z,99.90
2019-04-27T14:07:40.917Z,99.90
2019-04-27T14:10:09.419Z,99.90
2019-04-27T14:12:38.592Z,99.90
2019-04-27T14:15:08.574Z,99.90
2019-04-27T14:17:39.072Z,99.90
2019-04-27T14:20:08.000Z,99.90
2019-04-27T14:22:37.193Z,99.90
2019-04-27T14:25:08.582Z,99.90
2019-04-27T14:27:40.546Z,99.90
2019-04-27T14:30:09.156Z,99.90
2019-04-27T14:32:38.767Z,99.90
2019-04-27T14:35:08.395Z,99.90
2019-04-27T14:37:36.777Z,99.90
2019-04-27T14:40:08.339Z,99.90
2019-04-27T14:42:36.803Z,99.90
2019-04-27T14:45:08.959Z,99.90
2019-04-27T14:47:38.256Z,99.90
2019-04-27T14:50:08.852Z,99.90
2019-04-27T14:52:39.100Z,99.90
2019-04-27T14:55:08.647Z,99.90
2019-04-27T14:57:39.326Z,99.90
2019-04-27T15:00:07.203Z,99.90
2019-04-27T15:02:35.552Z,99.90
2019-04-27T15:05:05.261Z,99.90
2019-04-27T15:07:34.137Z,99.90
2019-04-27T15:10:02.664Z,99.90
2019-04-27T15:12:32.272Z,99.90
2019-04-27T15:15:01.438Z,99.90
2019-04-27T15:17:30.044Z,99.90
2019-04-27T15:20:14.762Z,99.90
2019-04-27T15:22:43.586Z,99.90
2019-04-27T15:25:15.269Z,99.90
2019-04-27T15:27:46.402Z,99.90
2019-04-27T15:30:22.316Z,99.90
2019-04-27T15:32:52.292Z,99.90
2019-04-27T15:35:22.247Z,99.90
2019-04-27T15:38:13.734Z,99.50
2019-04-27T15:40:54.435Z,96.80
2019-04-27T15:43:27.418Z,95.60
2019-04-27T15:45:57.607Z,97.70
2019-04-27T15:48:29.690Z,94.20
2019-04-27T15:50:55.158Z,94.40
2019-04-27T15:53:23.475Z,92.90
2019-04-27T15:55:53.723Z,93.10
2019-04-27T15:58:25.029Z,95.50
2019-04-27T16:00:56.438Z,94.60
2019-04-27T16:03:22.735Z,96.40
2019-04-27T16:05:51.873Z,97.60
2019-04-27T16:08:20.183Z,99.90
2019-04-27T16:10:48.783Z,99.90
2019-04-27T16:13:18.211Z,99.90
2019-04-27T16:15:48.104Z,99.90
2019-04-27T16:18:18.548Z,99.90
2019-04-27T16:20:48.390Z,99.90
2019-04-27T16:23:18.172Z,99.90
2019-04-27T16:25:50.787Z,99.90
2019-04-27T16:28:18.288Z,99.90
2019-04-27T16:30:50.532Z,99.90
2019-04-27T16:33:21.981Z,99.90
2019-04-27T16:35:48.755Z,99.90
2019-04-27T16:38:18.572Z,99.90
2019-04-27T16:40:46.905Z,99.90
2019-04-27T16:43:15.317Z,99.90
2019-04-27T16:45:43.750Z,99.90
2019-04-27T16:48:12.071Z,99.90
2019-04-27T16:50:40.446Z,99.90
2019-04-27T16:53:12.137Z,99.90
2019-04-27T16:55:38.839Z,99.90
2019-04-27T16:58:09.625Z,99.90
2019-04-27T17:00:38.709Z,99.90
2019-04-27T17:03:09.111Z,99.90
2019-04-27T17:05:38.029Z,99.90
2019-04-27T17:08:06.433Z,99.90
2019-04-27T17:10:34.811Z,99.90
2019-04-27T17:13:06.309Z,99.90
2019-04-27T17:15:53.650Z,99.90
2019-04-27T17:18:25.493Z,99.90
2019-04-27T17:21:01.011Z,99.90
2019-04-27T17:23:31.205Z,99.90
2019-04-27T17:26:04.251Z,99.90
2019-04-27T17:28:33.559Z,99.90
2019-04-27T17:31:00.086Z,99.90
2019-04-27T17:33:30.092Z,99.90
2019-04-27T17:35:59.620Z,99.90
2019-04-27T17:38:28.691Z,99.90
2019-04-27T17:40:57.271Z,99.90
2019-04-27T17:43:25.522Z,99.90
2019-04-27T17:45:53.807Z,99.90
2019-04-27T17:48:22.063Z,99.90
2019-04-27T17:50:50.338Z,99.90
2019-04-27T17:53:20.295Z,99.90
2019-04-27T17:55:48.782Z,99.90
2019-04-27T17:58:18.074Z,99.90
2019-04-27T18:00:46.520Z,99.90
2019-04-27T18:03:17.588Z,99.90
2019-04-27T18:05:49.316Z,99.90
2019-04-27T18:08:20.320Z,99.90
2019-04-27T18:10:44.835Z,99.90
2019-04-27T18:13:13.116Z,99.90
2019-04-27T18:15:41.423Z,99.90
2019-04-27T18:18:14.268Z,99.90
2019-04-27T18:20:42.565Z,99.90
2019-04-27T18:23:15.130Z,99.90
2019-04-27T18:25:44.092Z,99.90
2019-04-27T18:28:16.778Z,99.90
2019-04-27T18:30:52.764Z,99.90
2019-04-27T18:33:21.114Z,99.90
2019-04-27T18:35:49.393Z,99.90
2019-04-27T18:38:17.709Z,99.90
2019-04-27T18:40:45.967Z,99.90
2019-04-27T18:43:14.315Z,99.90
2019-04-27T18:45:44.967Z,99.90
2019-04-27T18:48:14.887Z,99.90
2019-04-27T18:50:52.215Z,99.90
2019-04-27T18:53:24.348Z,99.90
2019-04-27T18:55:57.676Z,99.90
2019-04-27T18:58:22.276Z,99.90
2019-04-27T19:00:51.017Z,99.90
2019-04-27T19:03:19.341Z,99.90
2019-04-27T19:05:48.130Z,99.90
2019-04-27T19:08:17.825Z,99.90
2019-04-27T19:10:46.617Z,99.90
2019-04-27T19:13:14.925Z,99.90
2019-04-27T19:15:43.195Z,99.90
2019-04-27T19:18:11.486Z,99.90
2019-04-27T19:20:39.763Z,99.90
2019-04-27T19:23:08.789Z,99.90
2019-04-27T19:25:48.217Z,99.90
2019-04-27T19:28:18.658Z,99.90
2019-04-27T19:30:54.452Z,99.90
2019-04-27T19:33:22.765Z,99.90
2019-04-27T19:35:51.082Z,99.90
2019-04-27T19:38:19.358Z,99.90
2019-04-27T19:40:47.706Z,99.90
2019-04-27T19:43:17.953Z,99.90
2019-04-27T19:45:45.970Z,99.90
2019-04-27T19:48:14.236Z,99.90
2019-04-27T19:50:42.555Z,99.90
2019-04-27T19:53:10.801Z,99.90
2019-04-27T19:55:40.584Z,99.90
2019-04-27T19:58:09.058Z,99.90
2019-04-27T20:00:44.869Z,99.90
2019-04-27T20:03:14.842Z,99.90
2019-04-27T20:05:43.203Z,99.90
2019-04-27T20:08:14.083Z,99.90
2019-04-27T20:10:43.320Z,99.90
2019-04-27T20:13:11.767Z,99.90
2019-04-27T20:15:40.650Z,99.90
2019-04-27T20:18:10.844Z,99.90
2019-04-27T20:20:39.221Z,99.90
2019-04-27T20:23:07.561Z,99.90
2019-04-27T20:25:35.915Z,99.90
2019-04-27T20:28:04.192Z,99.90
2019-04-27T20:30:32.486Z,99.90
2019-04-27T20:33:00.985Z,99.90
2019-04-27T20:35:29.371Z,99.90
2019-04-27T20:37:57.629Z,99.90
2019-04-27T20:40:25.916Z,99.90
2019-04-27T20:42:54.261Z,99.90
2019-04-27T20:45:22.622Z,99.90
2019-04-27T20:47:52.639Z,99.90
2019-04-27T20:50:21.062Z,99.90
2019-04-27T20:52:51.050Z,99.90
2019-04-27T20:55:21.243Z,99.90
2019-04-27T20:57:59.619Z,99.90
2019-04-27T21:00:21.927Z,99.90
2019-04-27T21:03:07.183Z,99.90
2019-04-27T21:05:37.089Z,99.90
2019-04-27T21:08:07.273Z,99.90
2019-04-27T21:10:35.567Z,99.90
2019-04-27T21:13:04.033Z,99.90
2019-04-27T21:15:32.333Z,99.90
2019-04-27T21:18:01.291Z,99.90
2019-04-27T21:20:31.002Z,99.90
2019-04-27T21:22:59.424Z,99.90
2019-04-27T21:25:27.694Z,99.90
2019-04-27T21:27:55.976Z,99.90
2019-04-27T21:30:24.249Z,99.90
2019-04-27T21:32:52.885Z,99.90
2019-04-27T21:35:21.206Z,99.90
2019-04-27T21:37:51.135Z,99.90
2019-04-27T21:40:21.353Z,99.90
2019-04-27T21:42:51.152Z,99.90
2019-04-27T21:45:21.604Z,99.90
2019-04-27T21:47:51.733Z,99.90
2019-04-27T21:50:20.560Z,99.90
2019-04-27T21:52:54.162Z,99.90
2019-04-27T21:55:24.058Z,99.90
2019-04-27T21:57:52.367Z,99.90
2019-04-27T22:00:42.773Z,99.90
2019-04-27T22:03:11.558Z,99.90
2019-04-27T22:05:41.513Z,99.90
2019-04-27T22:08:11.694Z,99.90
2019-04-27T22:10:39.963Z,99.90
2019-04-27T22:13:08.326Z,99.90
2019-04-27T22:15:36.657Z,99.90
2019-04-27T22:18:04.942Z,99.90
2019-04-27T22:20:33.757Z,99.90
2019-04-27T22:23:03.691Z,99.90
2019-04-27T22:25:36.251Z,99.90
2019-04-27T22:28:04.509Z,99.90
2019-04-27T22:30:32.826Z,99.90
2019-04-27T22:33:01.516Z,99.90
2019-04-27T22:35:31.299Z,99.90
2019-04-27T22:37:59.648Z,99.90
2019-04-27T22:40:41.903Z,99.90
2019-04-27T22:43:14.567Z,99.90
2019-04-27T22:45:44.506Z,99.90
2019-04-27T22:48:12.786Z,99.90
2019-04-27T22:50:41.395Z,99.90
2019-04-27T22:53:09.743Z,99.90
2019-04-27T22:55:41.218Z,99.90
2019-04-27T22:58:14.165Z,99.90
2019-04-27T23:00:51.305Z,99.90
2019-04-27T23:03:24.286Z,99.90
2019-04-27T23:05:52.592Z,99.90
2019-04-27T23:08:22.560Z,99.90
2019-04-27T23:10:51.030Z,99.90
2019-04-27T23:13:21.271Z,99.90
2019-04-27T23:15:51.296Z,99.90
2019-04-27T23:18:20.842Z,99.90
2019-04-27T23:20:49.676Z,99.90
2019-04-27T23:23:17.937Z,99.90
2019-04-27T23:25:46.263Z,99.90
2019-04-27T23:28:14.523Z,99.90
2019-04-27T23:30:44.542Z,99.90
2019-04-27T23:33:12.808Z,99.90
2019-04-27T23:35:41.486Z,99.90
2019-04-27T23:38:17.501Z,99.90
2019-04-27T23:40:41.648Z,99.90
2019-04-27T23:43:11.393Z,99.90
2019-04-27T23:45:41.781Z,99.90
2019-04-27T23:48:12.158Z,99.90
2019-04-27T23:50:41.518Z,99.90
2019-04-27T23:53:17.406Z,99.90
2019-04-27T23:55:45.687Z,99.90
2019-04-27T23:58:14.041Z,99.90
